LFYR

Details ICAO LFYR
Name Romorantin Prunier
Region France
Timezone Europe/Paris (UTC+2.0)
Plans Departing 9
Arriving 6
Stats Elevation 289 ft / 88 m (AMSL)
Location 47.321572° 1.688847°
Runways 3
Magnetic Variation 0.544° E
Sunrise 2018-05-27 04:06:02 UTC / 2018-05-27 06:06:02 Local
Sunset 2018-05-27 19:37:39 UTC / 2018-05-27 21:37:39 Local
Advertisement - Login to hide

Runways

ID Width Length Bearing (true) Bearing (mag) Surface Threshold Offset Overrun Length
05 33 ft / 10 m 1,708 ft / 520 m 46.00° 45.46° Asphalt 0 ft / 0 m 0 ft / 0 m
05L 328 ft / 100 m 2,626 ft / 801 m 46.00° 45.46° Grass 0 ft / 0 m 0 ft / 0 m
05R 328 ft / 100 m 3,119 ft / 951 m 46.00° 45.46° Grass 0 ft / 0 m 0 ft / 0 m
23 33 ft / 10 m 1,708 ft / 520 m 226.00° 225.46° Asphalt 0 ft / 0 m 0 ft / 0 m
23L 328 ft / 100 m 3,119 ft / 951 m 226.00° 225.46° Grass 0 ft / 0 m 0 ft / 0 m
23R 328 ft / 100 m 2,626 ft / 801 m 226.00° 225.46° Grass 0 ft / 0 m 0 ft / 0 m

Map

Weather


0- 5 10 15 20 25 30 35+ Temperature / ° C

Clouds and Precipitation
Forecast for 2018-05-27 06:00 UTC. Updated an hour ago

Ground ~20,000 ft ~40,000 ft Winds

METAR

LFYR 270600Z AUTO 08003KT CAVOK 18/15 Q1015

TAF

Not found
Warning: Do not use this data for real-world aviation or navigation. No guarantee of current accuracy is given.